Time;durP1;ratioP1;P1;durP2;ratioP2;P2;SDS_P1;SDS_P2;PMS_P1;PMS_P2;Temp;Humidity;BMP_temperature;BMP_pressure;BME280_temperature;BME280_humidity;BME280_pressure;Samples;Min_cycle;Max_cycle;Signal;HPM_P1;HPM_P2
2023/08/03 00:01:15;;;;;;;10.70;7.20;;;;;;;18.19;100.00;98858.90;106001;1250;73648;-74
2023/08/03 00:03:41;;;;;;;9.90;7.60;;;;;;;18.17;100.00;98864.36;105873;1254;69876;-75
2023/08/03 00:06:08;;;;;;;9.90;7.30;;;;;;;18.14;100.00;98865.46;105859;1253;71346;-75
2023/08/03 00:08:35;;;;;;;19.30;8.10;;;;;;;18.12;100.00;98867.08;105810;1251;61992;-75
2023/08/03 00:11:02;;;;;;;14.50;7.90;;;;;;;18.11;100.00;98865.38;105856;1251;60593;-76
2023/08/03 00:13:29;;;;;;;10.40;8.10;;;;;;;18.10;100.00;98865.79;105874;1250;73894;-75
2023/08/03 00:15:56;;;;;;;12.50;8.00;;;;;;;18.09;100.00;98867.10;105827;1251;70818;-75
2023/08/03 00:18:23;;;;;;;10.10;7.80;;;;;;;18.09;100.00;98865.20;105808;1254;72459;-75
2023/08/03 00:20:50;;;;;;;13.90;8.20;;;;;;;18.09;100.00;98862.30;105863;1251;61727;-75
2023/08/03 00:23:17;;;;;;;10.80;7.50;;;;;;;18.11;100.00;98867.53;105878;1251;60426;-75
2023/08/03 00:25:44;;;;;;;14.40;9.50;;;;;;;18.11;100.00;98870.88;105858;1253;73643;-75
2023/08/03 00:28:10;;;;;;;15.60;8.10;;;;;;;18.13;100.00;98869.86;105882;1250;70926;-75
2023/08/03 00:30:37;;;;;;;9.70;8.20;;;;;;;18.13;100.00;98868.95;105842;1255;72743;-76
2023/08/03 00:33:04;;;;;;;12.60;8.30;;;;;;;18.14;100.00;98870.14;105830;1250;61022;-76
2023/08/03 00:35:31;;;;;;;15.80;8.20;;;;;;;18.14;100.00;98877.91;105851;1250;60474;-76
2023/08/03 00:37:57;;;;;;;10.80;8.30;;;;;;;18.15;100.00;98875.02;105860;1250;73859;-76
2023/08/03 00:40:24;;;;;;;10.10;7.50;;;;;;;18.16;100.00;98881.48;105841;1250;60457;-75
2023/08/03 00:42:50;;;;;;;11.70;7.50;;;;;;;18.16;100.00;98885.61;105853;1251;60432;-76
2023/08/03 00:45:18;;;;;;;13.00;8.60;;;;;;;18.15;100.00;98887.95;105842;1250;62255;-75
2023/08/03 00:47:46;;;;;;;13.40;8.50;;;;;;;18.14;100.00;98891.60;105872;1250;60364;-75
2023/08/03 00:50:12;;;;;;;8.40;7.40;;;;;;;18.13;100.00;98891.14;105853;1250;72551;-76
2023/08/03 00:52:39;;;;;;;11.00;8.10;;;;;;;18.12;100.00;98889.64;105849;1250;71055;-76
2023/08/03 00:55:06;;;;;;;8.20;7.00;;;;;;;18.11;100.00;98890.59;105867;1250;72517;-74
2023/08/03 00:57:33;;;;;;;12.80;6.70;;;;;;;18.12;100.00;98894.23;105829;1253;60499;-75
2023/08/03 00:59:59;;;;;;;7.80;7.00;;;;;;;18.16;100.00;98899.08;105817;1251;60448;-74
2023/08/03 01:02:26;;;;;;;7.80;6.40;;;;;;;18.19;100.00;98892.83;105822;1250;73712;-76
2023/08/03 01:04:53;;;;;;;13.40;6.70;;;;;;;18.20;100.00;98894.13;105812;1250;70939;-76
2023/08/03 01:07:21;;;;;;;8.50;6.70;;;;;;;18.22;100.00;98891.91;105883;1250;71719;-76
2023/08/03 01:09:48;;;;;;;8.20;6.20;;;;;;;18.23;100.00;98895.91;106000;1254;61647;-75
2023/08/03 01:12:16;;;;;;;6.60;6.00;;;;;;;18.26;100.00;98894.44;105920;1251;60670;-75
2023/08/03 01:14:43;;;;;;;8.10;6.00;;;;;;;18.28;100.00;98895.66;105982;1254;73633;-76
2023/08/03 01:17:11;;;;;;;6.80;6.20;;;;;;;18.31;100.00;98897.44;105904;1250;71194;-76
2023/08/03 01:19:38;;;;;;;11.50;6.60;;;;;;;18.33;100.00;98894.40;105940;1251;72472;-75
2023/08/03 01:22:05;;;;;;;6.80;6.10;;;;;;;18.35;100.00;98897.13;105816;1252;61971;-75
2023/08/03 01:24:32;;;;;;;6.90;6.20;;;;;;;18.35;100.00;98897.99;105840;1254;60546;-75
2023/08/03 01:26:59;;;;;;;7.90;6.20;;;;;;;18.36;100.00;98898.65;105884;1250;72322;-76
2023/08/03 01:29:26;;;;;;;6.80;6.10;;;;;;;18.36;100.00;98902.52;105837;1255;69768;-76
2023/08/03 01:31:56;;;;;;;7.60;6.80;;;;;;;18.37;100.00;98904.56;105840;1250;71162;-76
2023/08/03 01:34:26;;;;;;;9.60;6.20;;;;;;;18.37;100.00;98910.09;105908;1254;60724;-76
2023/08/03 01:36:53;;;;;;;7.20;6.10;;;;;;;18.37;100.00;98910.94;105874;1250;60549;-75
2023/08/03 01:39:22;;;;;;;8.20;6.20;;;;;;;18.38;100.00;98910.55;105876;1250;72998;-76
2023/08/03 01:41:49;;;;;;;8.40;6.20;;;;;;;18.37;100.00;98909.23;105859;1251;70975;-76
2023/08/03 01:44:27;;;;;;;8.30;6.20;;;;;;;18.34;100.00;98907.97;105853;1251;72675;-76
2023/08/03 01:46:54;;;;;;;10.00;6.60;;;;;;;18.34;100.00;98908.57;105901;1250;60595;-76
2023/08/03 01:49:22;;;;;;;7.20;6.10;;;;;;;18.34;100.00;98911.53;106029;1251;60448;-76
2023/08/03 01:51:49;;;;;;;7.00;5.70;;;;;;;18.34;100.00;98923.27;105979;1251;72512;-76
2023/08/03 01:54:16;;;;;;;6.80;6.00;;;;;;;18.31;100.00;98924.92;105876;1250;71149;-75
2023/08/03 01:56:42;;;;;;;6.40;5.90;;;;;;;18.30;100.00;98928.39;105833;1250;72431;-75
2023/08/03 01:59:10;;;;;;;9.20;6.70;;;;;;;18.29;100.00;98929.38;105910;1250;62025;-75
2023/08/03 02:01:37;;;;;;;6.90;6.00;;;;;;;18.26;100.00;98927.98;105797;1250;60393;-75
2023/08/03 02:04:04;;;;;;;7.10;5.90;;;;;;;18.24;100.00;98927.45;105902;1254;73669;-75
2023/08/03 02:06:32;;;;;;;7.10;6.00;;;;;;;18.21;100.00;98927.25;105907;1250;71103;-76
2023/08/03 02:08:58;;;;;;;9.40;6.00;;;;;;;18.19;100.00;98927.22;105835;1250;72524;-75
2023/08/03 02:11:28;;;;;;;6.60;5.50;;;;;;;18.17;100.00;98936.95;105875;1250;61916;-76
2023/08/03 02:13:55;;;;;;;15.00;5.00;;;;;;;18.14;100.00;98937.00;105700;1251;60550;-75
2023/08/03 02:16:21;;;;;;;7.00;5.60;;;;;;;18.11;100.00;98936.54;105820;1251;72370;-75
2023/08/03 02:18:52;;;;;;;6.00;5.30;;;;;;;18.09;100.00;98939.54;105863;1251;70933;-75
2023/08/03 02:21:19;;;;;;;5.20;4.80;;;;;;;18.06;100.00;98942.77;105951;1251;71687;-75
2023/08/03 02:23:47;;;;;;;5.90;4.50;;;;;;;18.03;100.00;98948.12;105931;1250;60762;-75
2023/08/03 02:26:14;;;;;;;5.40;4.80;;;;;;;18.02;100.00;98948.91;105943;1250;60997;-75
2023/08/03 02:28:42;;;;;;;6.40;4.50;;;;;;;18.00;100.00;98958.08;105907;1256;73801;-75
2023/08/03 02:31:08;;;;;;;4.40;4.00;;;;;;;18.00;100.00;98958.16;105951;1255;70895;-75
2023/08/03 02:33:39;;;;;;;4.70;4.20;;;;;;;17.99;100.00;98962.48;105708;1252;72645;-76
2023/08/03 02:36:07;;;;;;;4.30;3.90;;;;;;;17.98;100.00;98969.78;105885;1250;62100;-75
2023/08/03 02:38:34;;;;;;;4.10;3.60;;;;;;;17.98;100.00;98974.79;106029;1251;60506;-75
2023/08/03 02:41:01;;;;;;;3.80;3.50;;;;;;;17.98;100.00;98979.36;105846;1250;73656;-76
2023/08/03 02:43:29;;;;;;;3.70;3.50;;;;;;;17.97;100.00;98980.90;105804;1250;71131;-75
2023/08/03 02:45:56;;;;;;;5.10;3.40;;;;;;;17.95;100.00;98987.27;105738;1253;72720;-75
2023/08/03 02:48:23;;;;;;;6.90;3.90;;;;;;;17.92;100.00;98987.67;105793;1256;60345;-75
2023/08/03 02:50:51;;;;;;;5.40;4.60;;;;;;;17.89;100.00;98988.96;105880;1250;60507;-75
2023/08/03 02:53:18;;;;;;;10.50;4.90;;;;;;;17.88;100.00;98992.59;105766;1250;73877;-75
2023/08/03 02:55:45;;;;;;;6.20;5.50;;;;;;;17.86;100.00;98992.87;105940;1250;70960;-74
2023/08/03 02:58:11;;;;;;;9.00;6.00;;;;;;;17.85;100.00;98997.37;105824;1251;60365;-75
2023/08/03 03:00:39;;;;;;;8.30;5.50;;;;;;;17.84;100.00;98999.70;105918;1250;61876;-76
2023/08/03 03:03:06;;;;;;;5.30;4.70;;;;;;;17.83;100.00;99001.34;105968;1254;60448;-76
2023/08/03 03:05:36;;;;;;;5.30;4.80;;;;;;;17.83;100.00;99004.55;105877;1250;73668;-76
2023/08/03 03:08:03;;;;;;;5.40;3.50;;;;;;;17.82;100.00;99007.11;105858;1254;71049;-75
2023/08/03 03:10:31;;;;;;;3.90;3.60;;;;;;;17.82;100.00;99007.65;105726;1253;72528;-75
2023/08/03 03:12:58;;;;;;;6.90;3.60;;;;;;;17.82;100.00;99004.31;105861;1251;61999;-75
2023/08/03 03:15:25;;;;;;;4.20;3.80;;;;;;;17.82;100.00;99003.42;105951;1250;60604;-75
2023/08/03 03:17:51;;;;;;;4.90;4.50;;;;;;;17.83;100.00;99001.02;105888;1250;72863;-75
2023/08/03 03:20:22;;;;;;;5.80;4.40;;;;;;;17.85;100.00;99010.87;105865;1254;71130;-75
2023/08/03 03:22:49;;;;;;;6.80;4.70;;;;;;;17.86;100.00;99011.35;105712;1253;72836;-74
2023/08/03 03:25:16;;;;;;;6.30;4.40;;;;;;;17.86;100.00;99008.45;105719;1250;61973;-74
2023/08/03 03:27:43;;;;;;;12.70;4.50;;;;;;;17.88;100.00;99008.18;105906;1251;60473;-75
2023/08/03 03:30:11;;;;;;;8.00;4.10;;;;;;;17.91;100.00;99008.66;105140;1256;1002948;-76
2023/08/03 03:32:38;;;;;;;7.90;4.00;;;;;;;17.95;100.00;99006.98;105731;1250;71176;-75
2023/08/03 03:35:05;;;;;;;6.00;3.90;;;;;;;17.99;100.00;99012.52;105890;1250;72710;-75
2023/08/03 03:37:32;;;;;;;6.20;3.60;;;;;;;18.02;100.00;99008.59;105819;1251;61949;-76
2023/08/03 03:39:58;;;;;;;3.90;3.30;;;;;;;18.04;100.00;99004.66;105701;1256;60488;-75
2023/08/03 03:42:31;;;;;;;2.90;2.70;;;;;;;18.08;100.00;99013.96;105971;1254;73800;-75
2023/08/03 03:44:59;;;;;;;3.20;2.80;;;;;;;18.11;100.00;99017.11;105821;1251;71061;-76
2023/08/03 03:47:27;;;;;;;3.20;2.90;;;;;;;18.14;100.00;99014.96;105902;1254;73197;-76
2023/08/03 03:49:55;;;;;;;5.90;2.80;;;;;;;18.17;100.00;99012.23;106019;1251;61669;-75
2023/08/03 03:52:21;;;;;;;3.20;2.90;;;;;;;18.20;100.00;99015.58;105904;1255;60454;-75
2023/08/03 03:54:48;;;;;;;3.40;2.90;;;;;;;18.24;100.00;99016.17;105874;1251;73554;-76
2023/08/03 03:57:16;;;;;;;6.60;3.80;;;;;;;18.29;100.00;99012.08;105826;1251;69990;-75
2023/08/03 03:59:43;;;;;;;5.20;4.40;;;;;;;18.34;100.00;99009.95;105875;1251;71052;-76
2023/08/03 04:02:10;;;;;;;4.40;4.00;;;;;;;18.38;100.00;99009.27;105878;1250;62016;-75
2023/08/03 04:04:37;;;;;;;6.30;3.50;;;;;;;18.42;100.00;99012.70;105838;1254;60334;-76
2023/08/03 04:07:04;;;;;;;7.60;3.40;;;;;;;18.43;100.00;99011.73;105884;1251;60553;-75
2023/08/03 04:09:31;;;;;;;6.00;3.40;;;;;;;18.44;100.00;99006.36;105804;1256;70908;-75
2023/08/03 04:11:57;;;;;;;9.30;4.10;;;;;;;18.45;100.00;99008.42;105906;1251;72477;-76
2023/08/03 04:14:24;;;;;;;5.30;3.10;;;;;;;18.46;100.00;99004.20;105908;1253;62426;-75
2023/08/03 04:16:52;;;;;;;3.70;3.20;;;;;;;18.50;100.00;98997.72;105885;1254;61154;-76
2023/08/03 04:19:19;;;;;;;3.50;3.00;;;;;;;18.52;100.00;98996.63;105899;1256;74385;-75
2023/08/03 04:21:45;;;;;;;3.40;3.00;;;;;;;18.54;100.00;98995.23;105814;1251;69583;-75
2023/08/03 04:24:13;;;;;;;3.10;2.50;;;;;;;18.57;100.00;98995.20;105880;1250;72395;-76
2023/08/03 04:26:40;;;;;;;2.90;2.70;;;;;;;18.60;100.00;98992.50;105877;1256;61328;-75
2023/08/03 04:29:09;;;;;;;2.60;2.50;;;;;;;18.63;100.00;98989.48;105730;1256;61324;-75
2023/08/03 04:31:36;;;;;;;2.60;2.30;;;;;;;18.64;100.00;98984.06;105874;1250;74336;-74
2023/08/03 04:34:04;;;;;;;3.70;2.70;;;;;;;18.65;100.00;98987.50;105787;1250;70986;-75
2023/08/03 04:36:31;;;;;;;4.70;2.80;;;;;;;18.64;100.00;98993.64;106011;1256;71300;-75
2023/08/03 04:38:58;;;;;;;4.90;2.70;;;;;;;18.62;100.00;98994.91;105908;1251;61359;-75
2023/08/03 04:41:27;;;;;;;3.70;2.80;;;;;;;18.61;100.00;99002.41;105916;1254;61345;-75
2023/08/03 04:43:54;;;;;;;3.30;2.30;;;;;;;18.62;100.00;99005.39;105126;1254;1002920;-77
2023/08/03 04:46:21;;;;;;;4.40;3.00;;;;;;;18.64;100.00;99003.63;105943;1250;70929;-76
2023/08/03 04:48:51;;;;;;;3.40;2.90;;;;;;;18.64;100.00;99003.92;105811;1253;72584;-76
2023/08/03 04:51:18;;;;;;;2.80;2.50;;;;;;;18.67;100.00;99007.42;105899;1251;61668;-76
2023/08/03 04:53:46;;;;;;;4.30;2.80;;;;;;;18.69;100.00;99012.80;105879;1254;61152;-76
2023/08/03 04:56:13;;;;;;;4.00;3.00;;;;;;;18.68;100.00;99012.53;105921;1255;61807;-75
2023/08/03 04:58:40;;;;;;;4.20;2.90;;;;;;;18.66;100.00;99019.98;105796;1250;70985;-75
2023/08/03 05:01:07;;;;;;;3.40;3.10;;;;;;;18.64;100.00;99020.66;105885;1251;72546;-75
2023/08/03 05:03:36;;;;;;;4.30;2.90;;;;;;;18.64;100.00;99028.14;105884;1250;61708;-75
2023/08/03 05:06:03;;;;;;;2.90;2.70;;;;;;;18.65;100.00;99036.41;105912;1251;61237;-75
2023/08/03 05:08:33;;;;;;;5.10;3.00;;;;;;;18.68;100.00;99048.23;105966;1250;74739;-76
2023/08/03 05:11:00;;;;;;;3.20;2.90;;;;;;;18.71;100.00;99053.89;105958;1250;70878;-77
2023/08/03 05:13:32;;;;;;;3.80;2.70;;;;;;;18.71;100.00;99052.61;105905;1254;71441;-76
2023/08/03 05:15:59;;;;;;;3.50;2.70;;;;;;;18.72;100.00;99054.65;105839;1250;61646;-76
2023/08/03 05:18:25;;;;;;;3.10;2.80;;;;;;;18.74;100.00;99051.67;105694;1256;61225;-76
2023/08/03 05:20:52;;;;;;;3.20;2.90;;;;;;;18.76;100.00;99050.46;105913;1252;73715;-75
2023/08/03 05:23:19;;;;;;;3.60;2.90;;;;;;;18.79;100.00;99042.46;105841;1256;70930;-75
2023/08/03 05:25:48;;;;;;;2.90;2.70;;;;;;;18.82;100.00;99046.13;105897;1254;72616;-75
2023/08/03 05:28:14;;;;;;;3.50;2.40;;;;;;;18.87;100.00;99044.80;105874;1251;61314;-75
2023/08/03 05:30:43;;;;;;;3.00;2.70;;;;;;;18.95;100.00;99051.71;105895;1250;61336;-77
2023/08/03 05:33:10;;;;;;;2.60;2.40;;;;;;;19.01;100.00;99059.99;105838;1250;74598;-76
2023/08/03 05:35:37;;;;;;;3.00;2.70;;;;;;;19.01;100.00;99056.04;105879;1250;70827;-76
2023/08/03 05:38:03;;;;;;;4.50;2.60;;;;;;;19.03;100.00;99053.09;105855;1251;61253;-75
2023/08/03 05:40:30;;;;;;;2.70;2.50;;;;;;;19.07;100.00;99063.40;105922;1256;61237;-76
2023/08/03 05:42:57;;;;;;;3.60;3.00;;;;;;;19.10;100.00;99059.42;105849;1255;61237;-76
2023/08/03 05:45:32;;;;;;;3.90;2.50;;;;;;;19.13;100.00;99060.33;105900;1250;61362;-76
2023/08/03 05:47:59;;;;;;;3.20;2.90;;;;;;;19.20;100.00;99065.08;105974;1256;70104;-77
2023/08/03 05:50:26;;;;;;;7.70;3.80;;;;;;;19.27;100.00;99064.69;105888;1250;71708;-75
2023/08/03 05:52:53;;;;;;;7.50;4.60;;;;;;;19.35;100.00;99061.45;105730;1251;62058;-75
2023/08/03 05:55:19;;;;;;;10.40;5.00;;;;;;;19.44;100.00;99057.52;105905;1251;61181;-75
2023/08/03 05:57:46;;;;;;;8.10;3.90;;;;;;;19.58;100.00;99061.98;105925;1250;61359;-75
2023/08/03 06:00:17;;;;;;;5.50;3.30;;;;;;;19.70;100.00;99055.84;105959;1251;70758;-75
2023/08/03 06:02:44;;;;;;;5.10;3.10;;;;;;;19.78;100.00;99054.54;105815;1256;71326;-76
2023/08/03 06:05:33;;;;;;;4.10;3.10;;;;;;;19.83;100.00;99053.16;105898;1253;61278;-75
2023/08/03 06:07:59;;;;;;;4.00;2.80;;;;;;;19.83;100.00;99046.33;105908;1251;61217;-76
2023/08/03 06:10:27;;;;;;;3.00;2.70;;;;;;;19.75;100.00;99040.70;105875;1254;61336;-76
2023/08/03 06:12:54;;;;;;;3.60;3.30;;;;;;;19.71;100.00;99049.34;105911;1254;70977;-75
2023/08/03 06:15:20;;;;;;;3.80;3.30;;;;;;;19.71;100.00;99047.20;105902;1254;72546;-76
2023/08/03 06:17:47;;;;;;;4.20;3.00;;;;;;;19.73;100.00;99048.83;105861;1255;61286;-76
2023/08/03 06:20:14;;;;;;;6.60;3.00;;;;;;;19.80;100.00;99052.22;105882;1252;61182;-75
2023/08/03 06:22:41;;;;;;;3.30;2.80;;;;;;;19.89;100.00;99055.11;105891;1251;74709;-75
2023/08/03 06:25:11;;;;;;;3.30;2.60;;;;;;;19.97;100.00;99045.35;105878;1256;69781;-75
2023/08/03 06:27:41;;;;;;;3.20;2.80;;;;;;;20.04;100.00;99045.30;105959;1255;72752;-76
2023/08/03 06:30:11;;;;;;;6.10;3.60;;;;;;;20.12;100.00;99045.23;105905;1255;61276;-75
2023/08/03 06:32:38;;;;;;;3.50;3.20;;;;;;;20.21;100.00;99045.35;105934;1250;61356;-78
2023/08/03 06:35:18;;;;;;;4.60;3.10;;;;;;;20.24;100.00;99047.96;105946;1251;74470;-77
2023/08/03 06:37:44;;;;;;;3.30;3.00;;;;;;;20.14;100.00;99046.30;105729;1256;71131;-76
2023/08/03 06:40:11;;;;;;;3.90;3.40;;;;;;;20.05;100.00;99047.19;105890;1251;72574;-76
2023/08/03 06:42:38;;;;;;;3.40;3.10;;;;;;;20.04;100.00;99056.67;105889;1256;61355;-76
2023/08/03 06:45:06;;;;;;;3.70;3.20;;;;;;;20.06;100.00;99057.45;105912;1256;61240;-76
2023/08/03 06:47:32;;;;;;;5.30;3.80;;;;;;;20.09;100.00;99054.70;105909;1256;74450;-75
2023/08/03 06:49:59;;;;;;;8.40;3.40;;;;;;;20.10;100.00;99059.08;105892;1256;71127;-74
2023/08/03 06:52:26;;;;;;;3.90;3.50;;;;;;;20.09;100.00;99059.68;105914;1256;72658;-76
2023/08/03 06:54:52;;;;;;;4.20;3.00;;;;;;;20.07;100.00;99061.13;105923;1257;61350;-76
2023/08/03 06:57:19;;;;;;;3.30;3.00;;;;;;;20.01;100.00;99058.33;105972;1250;61359;-77
2023/08/03 06:59:45;;;;;;;3.20;2.90;;;;;;;19.95;100.00;99057.94;105879;1251;61257;-75
2023/08/03 07:02:12;;;;;;;4.20;3.40;;;;;;;19.93;100.00;99059.17;105925;1251;69618;-76
2023/08/03 07:04:39;;;;;;;4.80;3.40;;;;;;;20.01;100.00;99060.52;105960;1255;72544;-75
2023/08/03 07:07:05;;;;;;;3.90;3.40;;;;;;;20.17;100.00;99068.65;105902;1258;61356;-76
2023/08/03 07:09:32;;;;;;;3.10;2.80;;;;;;;20.31;100.00;99062.70;105920;1257;61273;-75
2023/08/03 07:11:59;;;;;;;3.60;3.30;;;;;;;20.42;100.00;99058.21;105888;1254;74563;-75
2023/08/03 07:14:26;;;;;;;7.30;3.80;;;;;;;20.48;100.00;99060.08;105976;1256;70999;-75
2023/08/03 07:16:53;;;;;;;4.20;3.80;;;;;;;20.53;100.00;99062.64;105914;1251;72321;-75
2023/08/03 07:19:20;;;;;;;3.10;2.90;;;;;;;20.54;100.00;99055.82;105934;1256;61273;-75
2023/08/03 07:21:46;;;;;;;4.00;3.40;;;;;;;20.55;100.00;99053.06;105963;1251;61234;-75
2023/08/03 07:24:13;;;;;;;5.10;3.40;;;;;;;20.59;100.00;99041.99;105909;1252;74527;-75
2023/08/03 07:26:40;;;;;;;3.40;3.10;;;;;;;20.68;100.00;99042.17;105998;1256;71112;-75
2023/08/03 07:29:06;;;;;;;4.00;3.70;;;;;;;20.78;100.00;99048.15;105892;1250;61345;-75
2023/08/03 07:31:33;;;;;;;5.60;3.20;;;;;;;20.81;100.00;99043.30;105918;1250;61295;-76
2023/08/03 07:34:00;;;;;;;3.50;3.20;;;;;;;20.82;100.00;99039.80;105928;1256;61331;-76
2023/08/03 07:36:27;;;;;;;5.40;4.60;;;;;;;20.86;100.00;99042.64;105979;1256;74738;-75
2023/08/03 07:38:54;;;;;;;4.30;3.50;;;;;;;20.88;100.00;99036.46;105907;1250;70970;-77
2023/08/03 07:41:21;;;;;;;5.80;3.60;;;;;;;20.88;100.00;99041.02;105902;1251;72399;-77
2023/08/03 07:43:49;;;;;;;10.10;3.90;;;;;;;20.98;100.00;99045.94;105918;1251;61699;-76
2023/08/03 07:46:16;;;;;;;5.50;3.00;;;;;;;21.10;100.00;99043.59;105783;1256;61176;-76
2023/08/03 07:48:42;;;;;;;7.30;3.90;;;;;;;21.18;100.00;99032.65;105961;1256;74508;-75
2023/08/03 07:51:14;;;;;;;13.40;4.10;;;;;;;21.24;100.00;99036.41;105886;1252;61410;-75
2023/08/03 07:53:41;;;;;;;3.50;3.20;;;;;;;21.34;100.00;99038.69;105924;1254;72337;-76
2023/08/03 07:56:17;;;;;;;9.60;3.80;;;;;;;21.48;100.00;99035.39;105902;1251;61329;-76
2023/08/03 07:58:44;;;;;;;8.10;3.50;;;;;;;21.64;100.00;99037.24;105969;1255;61492;-76
2023/08/03 08:01:11;;;;;;;5.20;2.90;;;;;;;21.80;100.00;99037.20;105966;1257;75048;-74
2023/08/03 08:03:39;;;;;;;4.40;3.30;;;;;;;21.96;100.00;99033.86;105951;1256;69626;-76
2023/08/03 08:06:10;;;;;;;4.30;3.10;;;;;;;22.03;100.00;99019.30;105912;1256;72554;-75
2023/08/03 08:08:38;;;;;;;4.40;3.10;;;;;;;22.03;100.00;99023.19;105838;1250;61231;-76
2023/08/03 08:11:05;;;;;;;4.10;3.10;;;;;;;22.07;100.00;99025.68;105899;1257;61339;-75
2023/08/03 08:13:39;;;;;;;3.80;3.40;;;;;;;22.15;100.00;99027.84;105877;1256;74693;-78
2023/08/03 08:16:08;;;;;;;3.40;3.10;;;;;;;22.24;100.00;99032.56;105872;1251;71417;-76
2023/08/03 08:18:35;;;;;;;3.20;2.90;;;;;;;22.32;100.00;99028.14;105933;1251;73019;-76
2023/08/03 08:21:12;;;;;;;3.60;3.30;;;;;;;22.43;100.00;99035.91;105865;1250;61461;-75
2023/08/03 08:23:39;;;;;;;4.10;3.20;;;;;;;22.50;100.00;99030.97;105849;1257;61148;-75
2023/08/03 08:26:13;;;;;;;3.70;2.70;;;;;;;22.52;100.00;99026.88;105878;1254;74723;-75
2023/08/03 08:28:41;;;;;;;3.20;2.80;;;;;;;22.50;100.00;99020.21;105927;1256;71174;-75
2023/08/03 08:31:17;;;;;;;2.70;2.50;;;;;;;22.53;100.00;99023.86;105857;1257;72377;-76
2023/08/03 08:33:44;;;;;;;3.80;2.70;;;;;;;22.65;100.00;99032.96;105944;1251;61788;-76
2023/08/03 08:36:17;;;;;;;2.80;2.60;;;;;;;22.81;100.00;99036.13;105990;1257;61214;-76
2023/08/03 08:38:44;;;;;;;3.40;3.10;;;;;;;22.97;100.00;99033.23;106027;1252;74709;-75
2023/08/03 08:41:11;;;;;;;5.80;2.80;;;;;;;23.06;100.00;99026.00;105873;1256;70062;-74
2023/08/03 08:43:39;;;;;;;2.70;2.50;;;;;;;23.07;100.00;99025.77;105966;1251;72427;-75
2023/08/03 08:46:06;;;;;;;4.90;2.60;;;;;;;23.06;100.00;99022.04;106078;1252;61297;-75
2023/08/03 08:48:36;;;;;;;5.70;3.00;;;;;;;23.08;100.00;99025.98;106060;1251;61366;-76
2023/08/03 08:51:06;;;;;;;3.50;2.40;;;;;;;23.11;100.00;99013.46;105882;1255;74503;-76
2023/08/03 08:53:35;;;;;;;4.90;2.40;;;;;;;23.17;100.00;99015.29;106093;1250;70970;-76
2023/08/03 08:56:21;;;;;;;6.10;2.40;;;;;;;23.29;100.00;99023.20;105850;1254;71118;-75
2023/08/03 08:58:50;;;;;;;3.00;2.60;;;;;;;23.43;100.00;99021.06;105929;1257;61347;-75
2023/08/03 09:01:20;;;;;;;3.30;2.60;;;;;;;23.52;100.00;99013.88;105950;1254;61285;-75
2023/08/03 09:03:48;;;;;;;7.20;4.10;;;;;;;23.55;100.00;99012.50;105954;1255;74406;-76
2023/08/03 09:06:19;;;;;;;3.50;2.40;;;;;;;23.55;100.00;99010.55;105893;1258;71018;-76
2023/08/03 09:08:51;;;;;;;2.10;2.00;;;;;;;23.54;100.00;99005.95;105887;1255;71548;-75
2023/08/03 09:11:18;;;;;;;2.50;2.30;;;;;;;23.55;100.00;99012.88;105962;1251;61272;-75
2023/08/03 09:13:46;;;;;;;5.80;2.40;;;;;;;23.60;100.00;99008.46;105911;1256;61749;-76
2023/08/03 09:16:24;;;;;;;3.00;2.50;;;;;;;23.62;100.00;99011.54;105989;1257;74510;-76
2023/08/03 09:18:51;;;;;;;4.60;2.20;;;;;;;23.60;100.00;99013.52;105916;1260;70905;-75
2023/08/03 09:21:19;;;;;;;3.90;2.10;;;;;;;23.60;100.00;99013.30;105772;1250;61270;-76
2023/08/03 09:23:49;;;;;;;1.70;1.60;;;;;;;23.55;100.00;99008.43;106023;1251;61378;-76
2023/08/03 09:26:23;;;;;;;4.50;2.00;;;;;;;23.58;100.00;99016.13;106117;1254;61240;-75
2023/08/03 09:28:52;;;;;;;2.20;1.90;;;;;;;23.65;100.00;99013.33;105964;1256;73235;-76
2023/08/03 09:31:22;;;;;;;3.40;3.10;;;;;;;23.67;100.00;99012.08;105894;1254;71179;-75
2023/08/03 09:33:59;;;;;;;4.80;2.50;;;;;;;23.61;100.00;99014.46;105948;1255;72293;-76
2023/08/03 09:36:26;;;;;;;3.60;2.00;;;;;;;23.53;100.00;99011.86;105983;1256;61391;-76
2023/08/03 09:39:16;;;;;;;3.40;1.70;;;;;;;23.47;100.00;99015.25;105972;1255;61212;-75
2023/08/03 09:41:46;;;;;;;6.00;1.70;;;;;;;23.50;100.00;99017.51;105916;1262;74673;-76
2023/08/03 09:44:16;;;;;;;3.40;1.60;;;;;;;23.55;100.00;99017.73;105772;1258;70941;-75
2023/08/03 09:46:45;;;;;;;3.60;1.80;;;;;;;23.61;100.00;99005.66;106042;1252;72320;-75
2023/08/03 09:49:12;;;;;;;1.60;1.50;;;;;;;23.62;100.00;99000.74;105908;1254;61352;-75
2023/08/03 09:51:41;;;;;;;1.80;1.70;;;;;;;23.57;100.00;98991.21;105888;1254;61230;-75
2023/08/03 09:54:31;;;;;;;3.00;1.50;;;;;;;23.53;100.00;98990.13;105852;1253;74584;-75
2023/08/03 09:56:59;;;;;;;5.20;2.00;;;;;;;23.60;100.00;98997.91;106007;1251;70930;-75
2023/08/03 09:59:32;;;;;;;4.00;1.80;;;;;;;23.72;100.00;99009.11;105750;1251;71508;-75
2023/08/03 10:01:59;;;;;;;2.40;2.00;;;;;;;23.85;100.00;99015.73;105954;1256;61240;-76
2023/08/03 10:04:33;;;;;;;2.40;1.60;;;;;;;23.94;100.00;99008.02;105905;1257;61193;-76
2023/08/03 10:07:02;;;;;;;1.80;1.70;;;;;;;24.03;100.00;99003.06;105885;1254;75014;-76
2023/08/03 10:09:37;;;;;;;1.50;1.40;;;;;;;24.11;100.00;99003.16;105779;1251;61262;-76
2023/08/03 10:12:06;;;;;;;1.80;1.30;;;;;;;24.24;100.00;99002.01;105892;1254;72516;-76
2023/08/03 10:14:33;;;;;;;1.60;1.50;;;;;;;24.34;100.00;98989.17;105790;1251;61285;-76
2023/08/03 10:17:04;;;;;;;1.40;1.40;;;;;;;24.42;100.00;98983.61;105944;1251;61241;-75
2023/08/03 10:19:31;;;;;;;1.60;1.20;;;;;;;24.44;100.00;98980.65;105899;1254;74707;-76
2023/08/03 10:21:58;;;;;;;1.60;1.50;;;;;;;24.50;100.00;98985.27;105909;1254;70939;-77
2023/08/03 10:24:30;;;;;;;2.80;1.50;;;;;;;24.56;100.00;98983.25;106128;1251;71264;-76
2023/08/03 10:27:14;;;;;;;1.60;1.50;;;;;;;24.59;100.00;98987.39;105892;1251;61328;-75
2023/08/03 10:29:51;;;;;;;;;;;;;;;24.67;100.00;98983.98;105881;1254;61343;-75
2023/08/03 10:32:19;;;;;;;1.30;1.20;;;;;;;24.77;100.00;98986.81;105886;1254;61371;-77
2023/08/03 10:34:46;;;;;;;5.10;1.50;;;;;;;24.84;100.00;98985.25;106004;1251;70831;-75
2023/08/03 10:37:12;;;;;;;1.90;1.60;;;;;;;24.91;100.00;98982.27;105878;1251;61267;-75
2023/08/03 10:39:54;;;;;;;1.90;1.20;;;;;;;25.01;100.00;98971.63;105912;1251;61726;-75
2023/08/03 10:42:25;;;;;;;3.10;1.00;;;;;;;25.17;100.00;98972.73;105932;1254;61218;-75
2023/08/03 10:44:52;;;;;;;1.50;1.40;;;;;;;25.29;100.00;98975.63;106253;1254;74452;-75
2023/08/03 10:47:22;;;;;;;1.40;1.20;;;;;;;25.34;100.00;98969.15;106192;1251;70928;-75
2023/08/03 10:49:50;;;;;;;1.20;1.10;;;;;;;25.31;100.00;98966.98;105961;1254;71180;-76
2023/08/03 10:52:22;;;;;;;1.20;1.00;;;;;;;25.37;100.00;98972.42;105878;1256;61279;-75
2023/08/03 10:54:49;;;;;;;5.10;1.40;;;;;;;25.48;100.00;98972.73;106145;1252;61253;-75
2023/08/03 10:57:22;;;;;;;2.10;1.00;;;;;;;25.54;100.00;98957.55;105929;1251;74410;-75
2023/08/03 10:59:53;;;;;;;2.00;1.70;;;;;;;25.53;100.00;98959.97;105913;1255;71337;-75
2023/08/03 11:02:31;;;;;;;1.60;1.30;;;;;;;25.53;100.00;98957.61;105885;1254;73724;-75
2023/08/03 11:05:06;;;;;;;1.30;1.10;;;;;;;25.60;100.00;98956.73;105983;1250;61257;-76
2023/08/03 11:07:37;;;;;;;2.10;1.40;;;;;;;25.63;100.00;98949.10;105963;1254;61388;-76
2023/08/03 11:10:05;;;;;;;1.50;1.40;;;;;;;25.61;100.00;98949.86;105954;1250;74154;-76
2023/08/03 11:12:32;;;;;;;1.00;0.90;;;;;;;25.62;100.00;98945.79;105979;1251;71373;-75
2023/08/03 11:14:59;;;;;;;2.80;1.30;;;;;;;25.68;100.00;98946.95;105470;1254;410429;-75
2023/08/03 11:17:28;;;;;;;1.40;1.30;;;;;;;25.78;100.00;98947.08;105948;1251;61247;-75
2023/08/03 11:19:55;;;;;;;3.10;1.10;;;;;;;25.90;100.00;98944.55;105980;1255;61177;-75
2023/08/03 11:22:22;;;;;;;1.40;1.30;;;;;;;25.99;100.00;98943.34;105906;1254;74500;-76